sensor_id;sensor_type;location;lat;lon;timestamp;temperature;humidity
10911;DHT22;5508;49.150;11.030;2023-05-25T00:00:48;5.70;99.90
10911;DHT22;5508;49.150;11.030;2023-05-25T00:03:49;5.70;99.90
10911;DHT22;5508;49.150;11.030;2023-05-25T00:06:52;5.70;99.90
10911;DHT22;5508;49.150;11.030;2023-05-25T00:09:52;5.70;99.90
10911;DHT22;5508;49.150;11.030;2023-05-25T00:12:53;5.70;99.90
10911;DHT22;5508;49.150;11.030;2023-05-25T00:15:56;5.70;99.90
10911;DHT22;5508;49.150;11.030;2023-05-25T00:18:57;5.70;99.90
10911;DHT22;5508;49.150;11.030;2023-05-25T00:21:58;5.80;99.90
10911;DHT22;5508;49.150;11.030;2023-05-25T00:25:05;5.80;99.90
10911;DHT22;5508;49.150;11.030;2023-05-25T00:28:06;6.00;99.90
10911;DHT22;5508;49.150;11.030;2023-05-25T00:31:06;5.90;99.80
10911;DHT22;5508;49.150;11.030;2023-05-25T00:34:07;5.90;99.40
10911;DHT22;5508;49.150;11.030;2023-05-25T00:37:07;5.90;99.40
10911;DHT22;5508;49.150;11.030;2023-05-25T00:40:09;5.90;99.80
10911;DHT22;5508;49.150;11.030;2023-05-25T00:43:13;5.90;99.90
10911;DHT22;5508;49.150;11.030;2023-05-25T00:46:14;6.00;99.70
10911;DHT22;5508;49.150;11.030;2023-05-25T00:49:16;6.00;99.90
10911;DHT22;5508;49.150;11.030;2023-05-25T00:52:17;6.00;99.90
10911;DHT22;5508;49.150;11.030;2023-05-25T00:55:19;6.00;99.90
10911;DHT22;5508;49.150;11.030;2023-05-25T00:58:23;5.90;99.90
10911;DHT22;5508;49.150;11.030;2023-05-25T01:01:27;6.00;99.90
10911;DHT22;5508;49.150;11.030;2023-05-25T01:04:35;6.10;99.90
10911;DHT22;5508;49.150;11.030;2023-05-25T01:07:38;6.10;99.70
10911;DHT22;5508;49.150;11.030;2023-05-25T01:10:42;6.00;99.20
10911;DHT22;5508;49.150;11.030;2023-05-25T01:13:44;6.00;99.30
10911;DHT22;5508;49.150;11.030;2023-05-25T01:16:46;6.10;99.90
10911;DHT22;5508;49.150;11.030;2023-05-25T01:19:47;6.10;99.90
10911;DHT22;5508;49.150;11.030;2023-05-25T01:22:54;6.10;99.90
10911;DHT22;5508;49.150;11.030;2023-05-25T01:25:58;6.20;99.90
10911;DHT22;5508;49.150;11.030;2023-05-25T01:29:02;6.20;99.10
10911;DHT22;5508;49.150;11.030;2023-05-25T01:32:04;6.20;99.70
10911;DHT22;5508;49.150;11.030;2023-05-25T01:35:05;6.30;99.90
10911;DHT22;5508;49.150;11.030;2023-05-25T01:38:07;6.40;99.90
10911;DHT22;5508;49.150;11.030;2023-05-25T01:41:08;6.40;99.90
10911;DHT22;5508;49.150;11.030;2023-05-25T01:44:09;6.40;99.90
10911;DHT22;5508;49.150;11.030;2023-05-25T01:47:26;6.40;99.00
10911;DHT22;5508;49.150;11.030;2023-05-25T01:51:04;6.30;99.40
10911;DHT22;5508;49.150;11.030;2023-05-25T01:54:18;6.40;99.90
10911;DHT22;5508;49.150;11.030;2023-05-25T01:57:19;6.50;99.90
10911;DHT22;5508;49.150;11.030;2023-05-25T02:00:21;6.40;99.90
10911;DHT22;5508;49.150;11.030;2023-05-25T02:03:22;6.50;99.60
10911;DHT22;5508;49.150;11.030;2023-05-25T02:06:23;6.40;99.90
10911;DHT22;5508;49.150;11.030;2023-05-25T02:09:23;6.40;99.90
10911;DHT22;5508;49.150;11.030;2023-05-25T02:12:24;6.30;99.90
10911;DHT22;5508;49.150;11.030;2023-05-25T02:15:29;6.00;99.90
10911;DHT22;5508;49.150;11.030;2023-05-25T02:18:30;5.80;99.90
10911;DHT22;5508;49.150;11.030;2023-05-25T02:21:31;5.60;99.90
10911;DHT22;5508;49.150;11.030;2023-05-25T02:24:32;5.60;99.90
10911;DHT22;5508;49.150;11.030;2023-05-25T02:27:35;5.50;99.90
10911;DHT22;5508;49.150;11.030;2023-05-25T02:30:36;5.50;99.90
10911;DHT22;5508;49.150;11.030;2023-05-25T02:33:36;5.40;99.90
10911;DHT22;5508;49.150;11.030;2023-05-25T02:36:37;5.30;99.90
10911;DHT22;5508;49.150;11.030;2023-05-25T02:39:38;5.20;99.90
10911;DHT22;5508;49.150;11.030;2023-05-25T02:42:39;5.20;99.90
10911;DHT22;5508;49.150;11.030;2023-05-25T02:45:40;5.20;99.90
10911;DHT22;5508;49.150;11.030;2023-05-25T02:48:41;5.10;99.90
10911;DHT22;5508;49.150;11.030;2023-05-25T02:51:42;5.10;99.90
10911;DHT22;5508;49.150;11.030;2023-05-25T02:54:42;5.10;99.90
10911;DHT22;5508;49.150;11.030;2023-05-25T02:57:43;5.00;99.90
10911;DHT22;5508;49.150;11.030;2023-05-25T03:00:44;5.10;99.90
10911;DHT22;5508;49.150;11.030;2023-05-25T03:03:46;5.00;99.90
10911;DHT22;5508;49.150;11.030;2023-05-25T03:06:51;5.00;99.90
10911;DHT22;5508;49.150;11.030;2023-05-25T03:09:52;4.90;99.90
10911;DHT22;5508;49.150;11.030;2023-05-25T03:12:52;4.90;99.90
10911;DHT22;5508;49.150;11.030;2023-05-25T03:15:53;4.90;99.90
10911;DHT22;5508;49.150;11.030;2023-05-25T03:18:53;4.90;99.90
10911;DHT22;5508;49.150;11.030;2023-05-25T03:21:54;4.90;99.90
10911;DHT22;5508;49.150;11.030;2023-05-25T03:24:55;5.00;99.90
10911;DHT22;5508;49.150;11.030;2023-05-25T03:27:56;4.90;99.90
10911;DHT22;5508;49.150;11.030;2023-05-25T03:30:56;4.90;99.90
10911;DHT22;5508;49.150;11.030;2023-05-25T03:33:57;4.90;99.90
10911;DHT22;5508;49.150;11.030;2023-05-25T03:36:58;4.80;99.90
10911;DHT22;5508;49.150;11.030;2023-05-25T03:40:00;4.90;99.90
10911;DHT22;5508;49.150;11.030;2023-05-25T03:43:00;4.90;99.90
10911;DHT22;5508;49.150;11.030;2023-05-25T03:46:01;4.90;99.90
10911;DHT22;5508;49.150;11.030;2023-05-25T03:49:01;4.90;99.90
10911;DHT22;5508;49.150;11.030;2023-05-25T03:52:02;5.00;99.90
10911;DHT22;5508;49.150;11.030;2023-05-25T03:55:03;5.10;99.90
10911;DHT22;5508;49.150;11.030;2023-05-25T03:58:04;5.10;99.90
10911;DHT22;5508;49.150;11.030;2023-05-25T04:01:05;5.30;99.90
10911;DHT22;5508;49.150;11.030;2023-05-25T04:04:06;5.40;99.90
10911;DHT22;5508;49.150;11.030;2023-05-25T04:07:07;5.50;99.90
10911;DHT22;5508;49.150;11.030;2023-05-25T04:10:08;5.70;99.90
10911;DHT22;5508;49.150;11.030;2023-05-25T04:13:08;5.80;99.90
10911;DHT22;5508;49.150;11.030;2023-05-25T04:16:09;5.80;99.90
10911;DHT22;5508;49.150;11.030;2023-05-25T04:19:11;5.90;99.90
10911;DHT22;5508;49.150;11.030;2023-05-25T04:22:12;5.90;99.90
10911;DHT22;5508;49.150;11.030;2023-05-25T04:25:12;5.90;99.90
10911;DHT22;5508;49.150;11.030;2023-05-25T04:28:13;6.00;99.90
10911;DHT22;5508;49.150;11.030;2023-05-25T04:31:14;6.00;99.90
10911;DHT22;5508;49.150;11.030;2023-05-25T04:34:14;6.20;99.90
10911;DHT22;5508;49.150;11.030;2023-05-25T04:37:15;6.20;98.90
10911;DHT22;5508;49.150;11.030;2023-05-25T04:40:16;6.40;98.80
10911;DHT22;5508;49.150;11.030;2023-05-25T04:43:17;6.50;98.20
10911;DHT22;5508;49.150;11.030;2023-05-25T04:46:19;6.60;97.00
10911;DHT22;5508;49.150;11.030;2023-05-25T04:49:20;6.60;96.60
10911;DHT22;5508;49.150;11.030;2023-05-25T04:52:20;6.70;96.70
10911;DHT22;5508;49.150;11.030;2023-05-25T04:55:21;6.80;97.40
10911;DHT22;5508;49.150;11.030;2023-05-25T04:58:22;7.00;97.20
10911;DHT22;5508;49.150;11.030;2023-05-25T05:01:22;7.20;94.90
10911;DHT22;5508;49.150;11.030;2023-05-25T05:04:23;7.30;95.70
10911;DHT22;5508;49.150;11.030;2023-05-25T05:07:23;7.40;95.80
10911;DHT22;5508;49.150;11.030;2023-05-25T05:10:24;7.50;92.90
10911;DHT22;5508;49.150;11.030;2023-05-25T05:13:25;7.60;92.70
10911;DHT22;5508;49.150;11.030;2023-05-25T05:16:25;7.70;91.50
10911;DHT22;5508;49.150;11.030;2023-05-25T05:19:27;7.90;90.70
10911;DHT22;5508;49.150;11.030;2023-05-25T05:22:28;8.00;90.00
10911;DHT22;5508;49.150;11.030;2023-05-25T05:25:28;8.20;90.20
10911;DHT22;5508;49.150;11.030;2023-05-25T05:28:29;8.40;87.90
10911;DHT22;5508;49.150;11.030;2023-05-25T05:31:30;8.60;86.10
10911;DHT22;5508;49.150;11.030;2023-05-25T05:34:31;8.70;86.20
10911;DHT22;5508;49.150;11.030;2023-05-25T05:37:31;8.70;84.80
10911;DHT22;5508;49.150;11.030;2023-05-25T05:40:32;8.70;84.30
10911;DHT22;5508;49.150;11.030;2023-05-25T05:43:33;8.80;85.10
10911;DHT22;5508;49.150;11.030;2023-05-25T05:46:33;8.90;84.60
10911;DHT22;5508;49.150;11.030;2023-05-25T05:49:34;9.00;83.20
10911;DHT22;5508;49.150;11.030;2023-05-25T05:52:34;9.00;82.90
10911;DHT22;5508;49.150;11.030;2023-05-25T05:55:35;9.10;82.80
10911;DHT22;5508;49.150;11.030;2023-05-25T05:58:36;9.10;82.80
10911;DHT22;5508;49.150;11.030;2023-05-25T06:01:37;9.20;82.00
10911;DHT22;5508;49.150;11.030;2023-05-25T06:04:37;9.30;82.60
10911;DHT22;5508;49.150;11.030;2023-05-25T06:07:38;9.40;80.80
10911;DHT22;5508;49.150;11.030;2023-05-25T06:10:39;9.50;81.10
10911;DHT22;5508;49.150;11.030;2023-05-25T06:13:40;9.60;79.50
10911;DHT22;5508;49.150;11.030;2023-05-25T06:16:40;9.70;79.80
10911;DHT22;5508;49.150;11.030;2023-05-25T06:19:43;9.70;79.50
10911;DHT22;5508;49.150;11.030;2023-05-25T06:22:44;9.80;80.20
10911;DHT22;5508;49.150;11.030;2023-05-25T06:25:44;9.80;79.40
10911;DHT22;5508;49.150;11.030;2023-05-25T06:28:46;10.00;79.60
10911;DHT22;5508;49.150;11.030;2023-05-25T06:31:48;10.20;78.80
10911;DHT22;5508;49.150;11.030;2023-05-25T06:34:48;10.40;77.90
10911;DHT22;5508;49.150;11.030;2023-05-25T06:37:49;10.60;77.30
10911;DHT22;5508;49.150;11.030;2023-05-25T06:40:50;10.80;75.60
10911;DHT22;5508;49.150;11.030;2023-05-25T06:43:50;10.90;77.90
10911;DHT22;5508;49.150;11.030;2023-05-25T06:46:51;11.20;75.10
10911;DHT22;5508;49.150;11.030;2023-05-25T06:49:51;11.60;73.10
10911;DHT22;5508;49.150;11.030;2023-05-25T06:52:52;11.70;72.00
10911;DHT22;5508;49.150;11.030;2023-05-25T06:55:52;11.90;72.20
10911;DHT22;5508;49.150;11.030;2023-05-25T06:58:53;12.30;70.30
10911;DHT22;5508;49.150;11.030;2023-05-25T07:01:54;12.60;69.80
10911;DHT22;5508;49.150;11.030;2023-05-25T07:04:55;12.80;66.80
10911;DHT22;5508;49.150;11.030;2023-05-25T07:07:55;13.00;66.90
10911;DHT22;5508;49.150;11.030;2023-05-25T07:10:56;13.10;65.40
10911;DHT22;5508;49.150;11.030;2023-05-25T07:13:57;13.40;65.60
10911;DHT22;5508;49.150;11.030;2023-05-25T07:16:57;13.50;64.80
10911;DHT22;5508;49.150;11.030;2023-05-25T07:19:58;13.50;65.90
10911;DHT22;5508;49.150;11.030;2023-05-25T07:22:58;13.70;63.70
10911;DHT22;5508;49.150;11.030;2023-05-25T07:25:59;14.00;63.40
10911;DHT22;5508;49.150;11.030;2023-05-25T07:29:00;13.90;62.20
10911;DHT22;5508;49.150;11.030;2023-05-25T07:32:00;14.20;62.30
10911;DHT22;5508;49.150;11.030;2023-05-25T07:35:01;14.20;61.80
10911;DHT22;5508;49.150;11.030;2023-05-25T07:38:03;14.20;63.50
10911;DHT22;5508;49.150;11.030;2023-05-25T07:41:04;14.30;62.30
10911;DHT22;5508;49.150;11.030;2023-05-25T07:44:04;14.50;64.30
10911;DHT22;5508;49.150;11.030;2023-05-25T07:47:05;14.70;62.10
10911;DHT22;5508;49.150;11.030;2023-05-25T07:50:06;15.10;59.60
10911;DHT22;5508;49.150;11.030;2023-05-25T07:53:07;15.10;58.30
10911;DHT22;5508;49.150;11.030;2023-05-25T07:56:07;15.10;58.50
10911;DHT22;5508;49.150;11.030;2023-05-25T07:59:08;15.20;59.20
10911;DHT22;5508;49.150;11.030;2023-05-25T08:02:10;15.30;60.60
10911;DHT22;5508;49.150;11.030;2023-05-25T08:05:10;15.60;59.00
10911;DHT22;5508;49.150;11.030;2023-05-25T08:08:11;15.80;58.00
10911;DHT22;5508;49.150;11.030;2023-05-25T08:11:14;16.10;56.90
10911;DHT22;5508;49.150;11.030;2023-05-25T08:14:16;16.00;57.70
10911;DHT22;5508;49.150;11.030;2023-05-25T08:17:16;16.30;56.40
10911;DHT22;5508;49.150;11.030;2023-05-25T08:20:17;16.70;56.00
10911;DHT22;5508;49.150;11.030;2023-05-25T08:23:18;16.90;53.00
10911;DHT22;5508;49.150;11.030;2023-05-25T08:26:18;17.00;54.10
10911;DHT22;5508;49.150;11.030;2023-05-25T08:29:19;17.20;52.30
10911;DHT22;5508;49.150;11.030;2023-05-25T08:32:20;17.20;52.00
10911;DHT22;5508;49.150;11.030;2023-05-25T08:35:21;17.10;52.80
10911;DHT22;5508;49.150;11.030;2023-05-25T08:38:21;16.90;53.30
10911;DHT22;5508;49.150;11.030;2023-05-25T08:41:25;17.00;54.00
10911;DHT22;5508;49.150;11.030;2023-05-25T08:44:26;17.20;52.70
10911;DHT22;5508;49.150;11.030;2023-05-25T08:47:30;17.50;54.80
10911;DHT22;5508;49.150;11.030;2023-05-25T08:50:32;17.70;51.70
10911;DHT22;5508;49.150;11.030;2023-05-25T08:53:38;17.60;51.60
10911;DHT22;5508;49.150;11.030;2023-05-25T08:56:47;17.50;51.30
10911;DHT22;5508;49.150;11.030;2023-05-25T08:59:59;17.70;51.20
10911;DHT22;5508;49.150;11.030;2023-05-25T09:03:09;17.70;51.50
10911;DHT22;5508;49.150;11.030;2023-05-25T09:06:11;18.00;51.60
10911;DHT22;5508;49.150;11.030;2023-05-25T09:09:12;18.10;51.00
10911;DHT22;5508;49.150;11.030;2023-05-25T09:12:14;18.20;49.80
10911;DHT22;5508;49.150;11.030;2023-05-25T09:15:15;18.10;51.30
10911;DHT22;5508;49.150;11.030;2023-05-25T09:18:16;18.30;50.10
10911;DHT22;5508;49.150;11.030;2023-05-25T09:21:17;18.30;53.00
10911;DHT22;5508;49.150;11.030;2023-05-25T09:24:17;18.40;51.60
10911;DHT22;5508;49.150;11.030;2023-05-25T09:27:20;18.30;51.10
10911;DHT22;5508;49.150;11.030;2023-05-25T09:30:21;18.50;51.10
10911;DHT22;5508;49.150;11.030;2023-05-25T09:33:22;18.70;50.50
10911;DHT22;5508;49.150;11.030;2023-05-25T09:36:22;18.90;51.50
10911;DHT22;5508;49.150;11.030;2023-05-25T09:39:24;19.30;49.80
10911;DHT22;5508;49.150;11.030;2023-05-25T09:42:25;19.20;50.20
10911;DHT22;5508;49.150;11.030;2023-05-25T09:45:26;19.30;49.30
10911;DHT22;5508;49.150;11.030;2023-05-25T09:48:26;19.10;49.40
10911;DHT22;5508;49.150;11.030;2023-05-25T09:51:29;18.60;50.40
10911;DHT22;5508;49.150;11.030;2023-05-25T09:54:32;18.60;51.30
10911;DHT22;5508;49.150;11.030;2023-05-25T09:57:35;19.10;51.30
10911;DHT22;5508;49.150;11.030;2023-05-25T10:00:36;18.90;51.10
10911;DHT22;5508;49.150;11.030;2023-05-25T10:03:44;19.00;50.10
10911;DHT22;5508;49.150;11.030;2023-05-25T10:06:47;19.30;49.40
10911;DHT22;5508;49.150;11.030;2023-05-25T10:09:50;19.20;49.00
10911;DHT22;5508;49.150;11.030;2023-05-25T10:12:52;19.30;53.50
10911;DHT22;5508;49.150;11.030;2023-05-25T10:15:56;19.70;49.00
10911;DHT22;5508;49.150;11.030;2023-05-25T10:19:11;19.60;49.90
10911;DHT22;5508;49.150;11.030;2023-05-25T10:22:21;19.80;48.40
10911;DHT22;5508;49.150;11.030;2023-05-25T10:25:31;20.20;51.30
10911;DHT22;5508;49.150;11.030;2023-05-25T10:28:36;20.30;48.90
10911;DHT22;5508;49.150;11.030;2023-05-25T10:31:37;20.00;48.40
10911;DHT22;5508;49.150;11.030;2023-05-25T10:34:38;19.80;48.40
10911;DHT22;5508;49.150;11.030;2023-05-25T10:37:40;20.00;47.60
10911;DHT22;5508;49.150;11.030;2023-05-25T10:40:43;20.00;47.90
10911;DHT22;5508;49.150;11.030;2023-05-25T10:43:47;20.00;49.20
10911;DHT22;5508;49.150;11.030;2023-05-25T10:46:48;19.90;49.60
10911;DHT22;5508;49.150;11.030;2023-05-25T10:49:54;20.20;48.20
10911;DHT22;5508;49.150;11.030;2023-05-25T10:53:06;20.30;46.50
10911;DHT22;5508;49.150;11.030;2023-05-25T10:56:07;20.20;46.60
10911;DHT22;5508;49.150;11.030;2023-05-25T10:59:12;20.00;48.50
10911;DHT22;5508;49.150;11.030;2023-05-25T11:02:14;19.80;47.10
10911;DHT22;5508;49.150;11.030;2023-05-25T11:08:57;20.00;50.20
10911;DHT22;5508;49.150;11.030;2023-05-25T11:12:05;20.20;46.00
10911;DHT22;5508;49.150;11.030;2023-05-25T11:15:12;20.20;45.10
10911;DHT22;5508;49.150;11.030;2023-05-25T11:18:14;20.20;45.40
10911;DHT22;5508;49.150;11.030;2023-05-25T11:24:35;20.40;44.80
10911;DHT22;5508;49.150;11.030;2023-05-25T11:27:44;20.10;45.80
10911;DHT22;5508;49.150;11.030;2023-05-25T11:30:45;20.20;46.50
10911;DHT22;5508;49.150;11.030;2023-05-25T11:33:46;20.40;45.50
10911;DHT22;5508;49.150;11.030;2023-05-25T11:36:47;20.30;45.90
10911;DHT22;5508;49.150;11.030;2023-05-25T11:39:50;20.40;46.30
10911;DHT22;5508;49.150;11.030;2023-05-25T11:42:54;20.50;44.80
10911;DHT22;5508;49.150;11.030;2023-05-25T11:45:56;20.30;46.40
10911;DHT22;5508;49.150;11.030;2023-05-25T11:48:57;20.60;46.00
10911;DHT22;5508;49.150;11.030;2023-05-25T11:51:58;20.50;45.10
10911;DHT22;5508;49.150;11.030;2023-05-25T11:54:58;20.60;44.50
10911;DHT22;5508;49.150;11.030;2023-05-25T11:57:59;20.50;44.50
10911;DHT22;5508;49.150;11.030;2023-05-25T12:01:19;20.50;44.90
10911;DHT22;5508;49.150;11.030;2023-05-25T12:04:20;20.60;44.10
10911;DHT22;5508;49.150;11.030;2023-05-25T12:07:21;20.80;43.30
10911;DHT22;5508;49.150;11.030;2023-05-25T12:10:22;21.20;47.40
10911;DHT22;5508;49.150;11.030;2023-05-25T12:13:22;21.30;43.10
10911;DHT22;5508;49.150;11.030;2023-05-25T12:16:24;21.10;42.30
10911;DHT22;5508;49.150;11.030;2023-05-25T12:19:24;20.70;43.70
10911;DHT22;5508;49.150;11.030;2023-05-25T12:22:26;20.80;43.40
10911;DHT22;5508;49.150;11.030;2023-05-25T12:25:26;20.80;43.80
10911;DHT22;5508;49.150;11.030;2023-05-25T12:28:27;20.80;42.70
10911;DHT22;5508;49.150;11.030;2023-05-25T12:31:32;20.80;46.10
10911;DHT22;5508;49.150;11.030;2023-05-25T12:34:33;21.20;45.90
10911;DHT22;5508;49.150;11.030;2023-05-25T12:37:34;21.50;42.00
10911;DHT22;5508;49.150;11.030;2023-05-25T12:40:34;21.60;42.20
10911;DHT22;5508;49.150;11.030;2023-05-25T12:43:44;21.40;43.30
10911;DHT22;5508;49.150;11.030;2023-05-25T12:46:44;21.60;42.80
10911;DHT22;5508;49.150;11.030;2023-05-25T12:49:46;21.50;41.00
10911;DHT22;5508;49.150;11.030;2023-05-25T12:52:48;21.30;41.90
10911;DHT22;5508;49.150;11.030;2023-05-25T12:55:49;21.20;42.90
10911;DHT22;5508;49.150;11.030;2023-05-25T12:58:49;21.40;42.10
10911;DHT22;5508;49.150;11.030;2023-05-25T13:01:50;21.50;41.10
10911;DHT22;5508;49.150;11.030;2023-05-25T13:04:51;21.50;42.50
10911;DHT22;5508;49.150;11.030;2023-05-25T13:07:53;21.70;41.80
10911;DHT22;5508;49.150;11.030;2023-05-25T13:10:55;21.70;41.80
10911;DHT22;5508;49.150;11.030;2023-05-25T13:13:55;21.80;45.30
10911;DHT22;5508;49.150;11.030;2023-05-25T13:16:56;22.00;46.20
10911;DHT22;5508;49.150;11.030;2023-05-25T13:19:57;22.30;40.40
10911;DHT22;5508;49.150;11.030;2023-05-25T13:22:57;22.20;39.70
10911;DHT22;5508;49.150;11.030;2023-05-25T13:25:58;21.80;40.20
10911;DHT22;5508;49.150;11.030;2023-05-25T13:28:59;21.50;40.70
10911;DHT22;5508;49.150;11.030;2023-05-25T13:31:59;21.50;41.00
10911;DHT22;5508;49.150;11.030;2023-05-25T13:35:00;21.50;41.30
10911;DHT22;5508;49.150;11.030;2023-05-25T13:38:03;21.70;42.30
10911;DHT22;5508;49.150;11.030;2023-05-25T13:41:04;21.60;42.30
10911;DHT22;5508;49.150;11.030;2023-05-25T13:44:05;21.40;39.80
10911;DHT22;5508;49.150;11.030;2023-05-25T13:47:05;21.30;42.20
10911;DHT22;5508;49.150;11.030;2023-05-25T13:50:06;21.50;42.60
10911;DHT22;5508;49.150;11.030;2023-05-25T13:53:07;21.90;39.90
10911;DHT22;5508;49.150;11.030;2023-05-25T13:56:08;21.90;41.50
10911;DHT22;5508;49.150;11.030;2023-05-25T13:59:09;22.00;41.30
10911;DHT22;5508;49.150;11.030;2023-05-25T14:02:10;22.00;42.50
10911;DHT22;5508;49.150;11.030;2023-05-25T14:05:11;22.10;41.30
10911;DHT22;5508;49.150;11.030;2023-05-25T14:08:11;22.20;40.80
10911;DHT22;5508;49.150;11.030;2023-05-25T14:11:13;22.20;40.50
10911;DHT22;5508;49.150;11.030;2023-05-25T14:14:13;22.10;39.90
10911;DHT22;5508;49.150;11.030;2023-05-25T14:17:14;22.10;39.80
10911;DHT22;5508;49.150;11.030;2023-05-25T14:20:14;22.00;39.00
10911;DHT22;5508;49.150;11.030;2023-05-25T14:23:20;22.20;40.50
10911;DHT22;5508;49.150;11.030;2023-05-25T14:26:21;22.30;41.70
10911;DHT22;5508;49.150;11.030;2023-05-25T14:29:21;22.70;39.40
10911;DHT22;5508;49.150;11.030;2023-05-25T14:32:22;22.70;38.60
10911;DHT22;5508;49.150;11.030;2023-05-25T14:35:23;22.60;37.90
10911;DHT22;5508;49.150;11.030;2023-05-25T14:38:23;22.80;38.70
10911;DHT22;5508;49.150;11.030;2023-05-25T14:41:24;22.50;37.50
10911;DHT22;5508;49.150;11.030;2023-05-25T14:44:25;22.60;39.20
10911;DHT22;5508;49.150;11.030;2023-05-25T14:47:25;22.50;38.70
10911;DHT22;5508;49.150;11.030;2023-05-25T14:50:26;22.50;38.60
10911;DHT22;5508;49.150;11.030;2023-05-25T14:53:26;22.50;37.90
10911;DHT22;5508;49.150;11.030;2023-05-25T14:56:27;22.70;38.30
10911;DHT22;5508;49.150;11.030;2023-05-25T14:59:28;22.80;38.70
10911;DHT22;5508;49.150;11.030;2023-05-25T15:02:28;22.80;37.00
10911;DHT22;5508;49.150;11.030;2023-05-25T15:05:29;22.70;37.00
10911;DHT22;5508;49.150;11.030;2023-05-25T15:08:29;22.60;37.30
10911;DHT22;5508;49.150;11.030;2023-05-25T15:11:30;22.50;37.00
10911;DHT22;5508;49.150;11.030;2023-05-25T15:14:31;22.60;37.90
10911;DHT22;5508;49.150;11.030;2023-05-25T15:17:31;22.50;39.00
10911;DHT22;5508;49.150;11.030;2023-05-25T15:20:32;22.50;37.30
10911;DHT22;5508;49.150;11.030;2023-05-25T15:23:32;22.60;39.50
10911;DHT22;5508;49.150;11.030;2023-05-25T15:26:33;22.40;38.10
10911;DHT22;5508;49.150;11.030;2023-05-25T15:29:34;22.20;38.30
10911;DHT22;5508;49.150;11.030;2023-05-25T15:32:34;22.20;38.60
10911;DHT22;5508;49.150;11.030;2023-05-25T15:35:35;22.10;37.80
10911;DHT22;5508;49.150;11.030;2023-05-25T15:38:35;22.00;38.10
10911;DHT22;5508;49.150;11.030;2023-05-25T15:41:36;21.90;39.30
10911;DHT22;5508;49.150;11.030;2023-05-25T15:44:37;21.90;38.90
10911;DHT22;5508;49.150;11.030;2023-05-25T15:47:37;22.00;38.60
10911;DHT22;5508;49.150;11.030;2023-05-25T15:50:38;22.10;39.40
10911;DHT22;5508;49.150;11.030;2023-05-25T15:53:38;22.20;40.00
10911;DHT22;5508;49.150;11.030;2023-05-25T15:56:39;22.20;38.20
10911;DHT22;5508;49.150;11.030;2023-05-25T15:59:40;22.10;37.80
10911;DHT22;5508;49.150;11.030;2023-05-25T16:02:40;22.00;39.50
10911;DHT22;5508;49.150;11.030;2023-05-25T16:05:41;22.10;38.10
10911;DHT22;5508;49.150;11.030;2023-05-25T16:08:41;22.00;38.70
10911;DHT22;5508;49.150;11.030;2023-05-25T16:11:42;22.00;39.60
10911;DHT22;5508;49.150;11.030;2023-05-25T16:14:43;22.20;38.50
10911;DHT22;5508;49.150;11.030;2023-05-25T16:17:43;22.10;38.20
10911;DHT22;5508;49.150;11.030;2023-05-25T16:20:44;22.10;37.90
10911;DHT22;5508;49.150;11.030;2023-05-25T16:23:44;22.00;38.20
10911;DHT22;5508;49.150;11.030;2023-05-25T16:26:45;22.10;40.30
10911;DHT22;5508;49.150;11.030;2023-05-25T16:29:46;22.00;38.60
10911;DHT22;5508;49.150;11.030;2023-05-25T16:32:46;21.90;38.70
10911;DHT22;5508;49.150;11.030;2023-05-25T16:35:47;22.00;37.90
10911;DHT22;5508;49.150;11.030;2023-05-25T16:38:48;21.90;38.80
10911;DHT22;5508;49.150;11.030;2023-05-25T16:41:48;21.90;40.60
10911;DHT22;5508;49.150;11.030;2023-05-25T16:44:50;21.90;38.10
10911;DHT22;5508;49.150;11.030;2023-05-25T16:47:50;21.70;39.00
10911;DHT22;5508;49.150;11.030;2023-05-25T16:50:51;21.70;38.70
10911;DHT22;5508;49.150;11.030;2023-05-25T16:53:52;21.50;39.00
10911;DHT22;5508;49.150;11.030;2023-05-25T16:56:52;21.50;39.60
10911;DHT22;5508;49.150;11.030;2023-05-25T16:59:53;21.50;39.40
10911;DHT22;5508;49.150;11.030;2023-05-25T17:02:53;21.40;38.90
10911;DHT22;5508;49.150;11.030;2023-05-25T17:05:54;21.30;39.20
10911;DHT22;5508;49.150;11.030;2023-05-25T17:08:54;21.30;40.20
10911;DHT22;5508;49.150;11.030;2023-05-25T17:11:55;21.30;40.70
10911;DHT22;5508;49.150;11.030;2023-05-25T17:14:58;21.30;39.70
10911;DHT22;5508;49.150;11.030;2023-05-25T17:17:59;21.20;39.50
10911;DHT22;5508;49.150;11.030;2023-05-25T17:21:00;21.10;39.60
10911;DHT22;5508;49.150;11.030;2023-05-25T17:24:01;21.00;42.70
10911;DHT22;5508;49.150;11.030;2023-05-25T17:27:02;21.00;40.30
10911;DHT22;5508;49.150;11.030;2023-05-25T17:30:03;21.00;39.70
10911;DHT22;5508;49.150;11.030;2023-05-25T17:33:04;20.90;40.60
10911;DHT22;5508;49.150;11.030;2023-05-25T17:36:05;20.90;39.50
10911;DHT22;5508;49.150;11.030;2023-05-25T17:39:05;20.80;40.60
10911;DHT22;5508;49.150;11.030;2023-05-25T17:42:06;20.60;40.80
10911;DHT22;5508;49.150;11.030;2023-05-25T17:45:07;20.60;40.70
10911;DHT22;5508;49.150;11.030;2023-05-25T17:48:10;20.60;40.80
10911;DHT22;5508;49.150;11.030;2023-05-25T17:51:11;20.60;41.10
10911;DHT22;5508;49.150;11.030;2023-05-25T17:54:12;20.50;42.50
10911;DHT22;5508;49.150;11.030;2023-05-25T17:57:14;20.30;43.70
10911;DHT22;5508;49.150;11.030;2023-05-25T18:00:15;20.20;45.40
10911;DHT22;5508;49.150;11.030;2023-05-25T18:03:22;20.10;43.00
10911;DHT22;5508;49.150;11.030;2023-05-25T18:06:24;20.00;42.70
10911;DHT22;5508;49.150;11.030;2023-05-25T18:09:25;20.00;43.10
10911;DHT22;5508;49.150;11.030;2023-05-25T18:12:25;20.00;43.20
10911;DHT22;5508;49.150;11.030;2023-05-25T18:15:26;19.80;45.60
10911;DHT22;5508;49.150;11.030;2023-05-25T18:18:27;19.80;46.60
10911;DHT22;5508;49.150;11.030;2023-05-25T18:21:27;19.60;46.40
10911;DHT22;5508;49.150;11.030;2023-05-25T18:24:28;19.60;47.60
10911;DHT22;5508;49.150;11.030;2023-05-25T18:27:28;19.40;47.60
10911;DHT22;5508;49.150;11.030;2023-05-25T18:30:29;19.20;48.10
10911;DHT22;5508;49.150;11.030;2023-05-25T18:33:29;19.10;49.60
10911;DHT22;5508;49.150;11.030;2023-05-25T18:36:30;19.00;50.50
10911;DHT22;5508;49.150;11.030;2023-05-25T18:39:32;18.80;50.80
10911;DHT22;5508;49.150;11.030;2023-05-25T18:42:33;18.70;51.60
10911;DHT22;5508;49.150;11.030;2023-05-25T18:45:34;18.50;52.30
10911;DHT22;5508;49.150;11.030;2023-05-25T18:48:34;18.40;53.10
10911;DHT22;5508;49.150;11.030;2023-05-25T18:51:35;18.30;53.60
10911;DHT22;5508;49.150;11.030;2023-05-25T18:54:36;18.10;53.60
10911;DHT22;5508;49.150;11.030;2023-05-25T18:57:38;18.00;54.10
10911;DHT22;5508;49.150;11.030;2023-05-25T19:00:39;17.90;54.70
10911;DHT22;5508;49.150;11.030;2023-05-25T19:03:39;17.80;55.70
10911;DHT22;5508;49.150;11.030;2023-05-25T19:06:40;17.70;55.90
10911;DHT22;5508;49.150;11.030;2023-05-25T19:09:40;17.60;56.10
10911;DHT22;5508;49.150;11.030;2023-05-25T19:12:41;17.40;56.40
10911;DHT22;5508;49.150;11.030;2023-05-25T19:15:42;17.40;56.90
10911;DHT22;5508;49.150;11.030;2023-05-25T19:18:42;17.20;57.30